Time;durP1;ratioP1;P1;durP2;ratioP2;P2;SDS_P1;SDS_P2;PMS_P1;PMS_P2;Temp;Humidity;BMP_temperature;BMP_pressure;BME280_temperature;BME280_humidity;BME280_pressure;Samples;Min_cycle;Max_cycle;Signal;HPM_P1;HPM_P2
2022/11/24 00:01:06;;;;;;;22.53;4.20;;;7.10;99.90;;;;;;4844441;29;20286;-58
2022/11/24 00:03:33;;;;;;;18.83;4.43;;;7.10;99.90;;;;;;4844412;29;20211;-59
2022/11/24 00:06:09;;;;;;;9.87;3.67;;;7.10;99.90;;;;;;4841050;29;20750;-59
2022/11/24 00:08:38;;;;;;;25.87;4.23;;;7.10;99.90;;;;;;4842544;29;20196;-59
2022/11/24 00:11:11;;;;;;;14.00;4.20;;;7.20;99.90;;;;;;4838764;29;20320;-58
2022/11/24 00:13:38;;;;;;;14.73;3.27;;;7.20;99.90;;;;;;4841610;29;20225;-58
2022/11/24 00:16:14;;;;;;;16.53;4.50;;;7.30;99.90;;;;;;4844443;29;20534;-59
2022/11/24 00:18:43;;;;;;;15.10;4.40;;;7.30;99.90;;;;;;4844132;29;20207;-59
2022/11/24 00:21:11;;;;;;;24.10;4.53;;;7.40;99.90;;;;;;4827278;29;20549;-58
2022/11/24 00:23:38;;;;;;;21.30;3.80;;;7.40;99.90;;;;;;4842648;29;20224;-61
2022/11/24 00:26:08;;;;;;;19.97;4.70;;;7.50;99.90;;;;;;4827162;29;20226;-60
2022/11/24 00:28:36;;;;;;;18.13;5.00;;;7.40;99.90;;;;;;4826410;29;20218;-58
2022/11/24 00:31:05;;;;;;;22.57;4.70;;;7.40;99.90;;;;;;4824085;29;21060;-59
2022/11/24 00:33:32;;;;;;;19.00;6.33;;;7.50;99.90;;;;;;4843594;29;20228;-60
2022/11/24 00:35:59;;;;;;;21.63;5.83;;;7.60;99.90;;;;;;4842328;29;20210;-59
2022/11/24 00:38:26;;;;;;;19.73;5.53;;;7.80;44.10;;;;;;4843163;29;20203;-58
2022/11/24 00:40:53;;;;;;;20.83;5.77;;;7.90;41.00;;;;;;4843733;29;20262;-60
2022/11/24 00:43:20;;;;;;;16.33;4.07;;;8.00;22.10;;;;;;4842977;29;20199;-59
2022/11/24 00:45:47;;;;;;;16.63;4.20;;;8.10;19.10;;;;;;4843281;29;20250;-61
2022/11/24 00:48:15;;;;;;;17.27;4.30;;;8.20;5.10;;;;;;4842900;29;20191;-59
2022/11/24 00:50:42;;;;;;;23.50;4.53;;;8.10;9.40;;;;;;4845204;29;20242;-59
2022/11/24 00:53:09;;;;;;;16.70;5.33;;;8.20;1.00;;;;;;4841183;29;20198;-59
2022/11/24 00:55:35;;;;;;;19.57;3.93;;;8.20;6.50;;;;;;4840494;29;20211;-58
2022/11/24 00:58:02;;;;;;;18.07;4.03;;;8.10;15.40;;;;;;4841687;29;20219;-59
2022/11/24 01:00:30;;;;;;;16.60;4.40;;;8.00;18.20;;;;;;4844094;29;20249;-59
2022/11/24 01:02:57;;;;;;;24.17;4.77;;;7.90;36.90;;;;;;4842916;29;20290;-59
2022/11/24 01:05:24;;;;;;;16.50;4.40;;;8.00;48.10;;;;;;4842001;29;20294;-61
2022/11/24 01:07:51;;;;;;;20.23;4.87;;;7.90;54.70;;;;;;4841851;29;20417;-61
2022/11/24 01:10:18;;;;;;;26.00;4.60;;;8.00;42.00;;;;;;4842528;29;20234;-61
2022/11/24 01:12:45;;;;;;;22.07;4.67;;;7.90;57.00;;;;;;4840890;29;20198;-61
2022/11/24 01:15:12;;;;;;;19.47;4.33;;;7.80;86.50;;;;;;4829360;29;20241;-59
2022/11/24 01:17:39;;;;;;;16.70;3.80;;;7.80;99.90;;;;;;4846024;29;20207;-60
2022/11/24 01:20:06;;;;;;;20.07;4.40;;;7.80;99.90;;;;;;4847199;29;20198;-58
2022/11/24 01:22:34;;;;;;;18.47;4.20;;;7.70;99.90;;;;;;4843719;29;20735;-58
2022/11/24 01:25:01;;;;;;;19.97;4.17;;;7.70;99.90;;;;;;4844468;29;20202;-59
2022/11/24 01:27:28;;;;;;;16.87;4.00;;;7.80;96.20;;;;;;4846687;29;20199;-62
2022/11/24 01:29:54;;;;;;;15.83;3.73;;;7.80;97.20;;;;;;4847268;29;20551;-60
2022/11/24 01:32:22;;;;;;;15.40;4.40;;;7.70;99.90;;;;;;4845740;29;20574;-61
2022/11/24 01:34:49;;;;;;;13.93;4.10;;;7.70;99.90;;;;;;4845331;29;20604;-59
2022/11/24 01:37:15;;;;;;;21.60;4.03;;;7.60;99.90;;;;;;4845542;29;20559;-60
2022/11/24 01:39:42;;;;;;;19.23;4.53;;;7.50;99.90;;;;;;4846359;29;20198;-60
2022/11/24 01:42:09;;;;;;;23.77;4.47;;;7.60;99.90;;;;;;4845432;29;20202;-60
2022/11/24 01:44:36;;;;;;;16.70;4.10;;;7.50;99.90;;;;;;4843089;29;20591;-59
2022/11/24 01:47:20;;;;;;;15.63;4.10;;;7.50;99.90;;;;;;4845648;29;20572;-61
2022/11/24 01:49:52;;;;;;;20.57;5.17;;;7.50;99.90;;;;;;4845336;29;20650;-59
2022/11/24 01:52:39;;;;;;;17.07;4.57;;;7.60;99.60;;;;;;4844445;29;20289;-59
2022/11/24 01:55:12;;;;;;;15.00;5.00;;;7.60;74.50;;;;;;4836380;29;20681;-60
2022/11/24 01:57:47;;;;;;;23.27;8.20;;;7.50;96.40;;;;;;4827321;29;20202;-60
2022/11/24 02:00:14;;;;;;;14.97;3.90;;;7.40;99.90;;;;;;4842469;29;20895;-60
2022/11/24 02:02:44;;;;;;;15.50;3.97;;;7.50;99.90;;;;;;4845351;29;20726;-57
2022/11/24 02:05:17;;;;;;;23.47;6.23;;;7.60;83.30;;;;;;4843368;29;20222;-58
2022/11/24 02:07:45;;;;;;;16.87;3.47;;;7.70;67.90;;;;;;4844137;29;20222;-60
2022/11/24 02:10:14;;;;;;;21.07;4.30;;;7.70;33.80;;;;;;4832630;29;20235;-60
2022/11/24 02:12:45;;;;;;;15.53;3.93;;;7.70;36.00;;;;;;4843791;29;20620;-62
2022/11/24 02:15:17;;;;;;;21.13;3.77;;;7.70;28.10;;;;;;4844136;29;20194;-59
2022/11/24 02:17:43;;;;;;;22.27;4.07;;;7.70;7.20;;;;;;4858793;29;20245;-61
2022/11/24 02:20:12;;;;;;;20.83;4.27;;;7.70;13.00;;;;;;4842677;29;20668;-62
2022/11/24 02:22:48;;;;;;;19.17;3.80;;;7.60;15.40;;;;;;4857687;29;20217;-59
2022/11/24 02:25:36;;;;;;;16.37;3.67;;;7.50;27.70;;;;;;4846856;29;20198;-59
2022/11/24 02:28:09;;;;;;;23.57;4.93;;;7.50;26.30;;;;;;4845777;29;20210;-58
2022/11/24 02:30:36;;;;;;;16.93;4.80;;;7.40;27.70;;;;;;4843662;29;20278;-59
2022/11/24 02:33:03;;;;;;;18.07;4.17;;;7.50;25.40;;;;;;4841202;29;20221;-58
2022/11/24 02:35:30;;;;;;;17.30;3.70;;;7.50;21.10;;;;;;4843982;29;20225;-57
2022/11/24 02:37:57;;;;;;;15.70;3.97;;;7.40;21.50;;;;;;4843496;29;20241;-59
2022/11/24 02:40:27;;;;;;;12.33;3.80;;;7.40;26.50;;;;;;4845745;29;20250;-61
2022/11/24 02:43:08;;;;;;;18.43;3.30;;;7.30;31.70;;;;;;4843120;29;20667;-60
2022/11/24 02:45:35;;;;;;;15.63;3.70;;;7.40;27.60;;;;;;4844368;29;20220;-58
2022/11/24 02:48:02;;;;;;;16.77;3.27;;;7.20;31.00;;;;;;4844628;29;20221;-60
2022/11/24 02:50:29;;;;;;;11.97;3.57;;;7.20;43.50;;;;;;4859947;29;20294;-59
2022/11/24 02:52:56;;;;;;;21.33;3.87;;;7.20;54.50;;;;;;4858521;29;20291;-59
2022/11/24 02:55:23;;;;;;;17.47;4.57;;;7.30;28.10;;;;;;4843561;29;20768;-61
2022/11/24 02:57:50;;;;;;;17.57;3.50;;;7.50;4.00;;;;;;4845786;29;20290;-62
2022/11/24 03:00:17;;;;;;;15.50;3.57;;;7.60;1.00;;;;;;4857383;29;20290;-60
2022/11/24 03:02:44;;;;;;;14.93;3.80;;;7.70;1.00;;;;;;4841429;29;20330;-60
2022/11/24 03:05:12;;;;;;;19.00;4.20;;;7.80;1.00;;;;;;4844003;29;20734;-60
2022/11/24 03:07:39;;;;;;;19.27;4.07;;;7.80;1.00;;;;;;4842195;29;20234;-61
2022/11/24 03:10:06;;;;;;;20.00;3.97;;;7.80;1.00;;;;;;4844047;29;20245;-61
2022/11/24 03:12:33;;;;;;;18.47;3.93;;;7.90;1.00;;;;;;4842297;29;20198;-60
2022/11/24 03:15:02;;;;;;;16.00;3.90;;;7.90;1.00;;;;;;4843685;29;20282;-61
2022/11/24 03:17:29;;;;;;;14.37;3.10;;;8.00;1.00;;;;;;4842768;29;20644;-61
2022/11/24 03:19:56;;;;;;;20.40;3.97;;;8.00;1.00;;;;;;4828240;29;20293;-60
2022/11/24 03:22:30;;;;;;;23.63;3.90;;;8.10;1.00;;;;;;4844109;29;20779;-62
2022/11/24 03:24:57;;;;;;;16.17;3.60;;;8.10;1.00;;;;;;4829975;29;20247;-62
2022/11/24 03:27:24;;;;;;;15.00;3.80;;;8.10;1.00;;;;;;4842533;29;20330;-59
2022/11/24 03:29:51;;;;;;;15.47;3.33;;;8.00;1.00;;;;;;4843645;29;20610;-59
2022/11/24 03:32:18;;;;;;;15.13;3.87;;;8.10;1.00;;;;;;4827591;29;20291;-63
2022/11/24 03:34:45;;;;;;;17.37;3.97;;;8.10;1.00;;;;;;4844121;29;20253;-61
2022/11/24 03:37:12;;;;;;;17.77;4.00;;;8.00;1.00;;;;;;4827457;29;21031;-62
2022/11/24 03:39:39;;;;;;;22.33;4.37;;;8.00;1.00;;;;;;4844748;29;20233;-59
2022/11/24 03:42:06;;;;;;;11.23;2.97;;;8.20;1.00;;;;;;4845746;29;20203;-59
2022/11/24 03:44:33;;;;;;;16.30;3.30;;;8.30;1.00;;;;;;4843623;29;20236;-61
2022/11/24 03:47:00;;;;;;;16.40;4.27;;;8.30;1.00;;;;;;4843637;29;20215;-61
2022/11/24 03:49:27;;;;;;;16.77;3.80;;;8.30;1.00;;;;;;4837747;29;20220;-60
2022/11/24 03:51:55;;;;;;;20.73;4.03;;;8.30;1.00;;;;;;4842069;29;20195;-60
2022/11/24 03:54:22;;;;;;;23.90;4.00;;;8.30;1.00;;;;;;4844269;29;20978;-58
2022/11/24 03:56:49;;;;;;;15.20;3.43;;;8.30;1.00;;;;;;4826686;29;20259;-59
2022/11/24 03:59:16;;;;;;;22.17;3.80;;;8.40;1.00;;;;;;4843675;29;20225;-59
2022/11/24 04:01:43;;;;;;;17.40;3.47;;;8.50;1.00;;;;;;4833426;29;20273;-59
2022/11/24 04:04:11;;;;;;;13.53;3.93;;;8.60;1.00;;;;;;4843776;29;21176;-62
2022/11/24 04:06:39;;;;;;;17.73;3.47;;;8.50;1.00;;;;;;4840167;29;20306;-61
2022/11/24 04:09:06;;;;;;;20.43;3.90;;;8.50;1.00;;;;;;4843048;29;20313;-61
2022/11/24 04:14:32;;;;;;;13.23;3.23;;;8.50;1.00;;;;;;4837542;29;20221;-61
2022/11/24 04:17:00;;;;;;;19.07;3.40;;;8.50;1.00;;;;;;4845733;29;20210;-60
2022/11/24 04:19:26;;;;;;;12.03;2.93;;;8.60;1.00;;;;;;4844107;29;20198;-60
2022/11/24 04:21:53;;;;;;;13.60;3.03;;;8.60;1.00;;;;;;4844384;29;20210;-63
2022/11/24 04:24:20;;;;;;;14.73;3.40;;;8.60;1.00;;;;;;4843639;29;20285;-59
2022/11/24 04:26:47;;;;;;;16.70;3.33;;;8.60;1.00;;;;;;4843581;29;20207;-60
2022/11/24 04:29:14;;;;;;;23.87;4.40;;;8.70;1.00;;;;;;4842608;29;20197;-59
2022/11/24 04:31:41;;;;;;;21.07;3.43;;;8.60;1.00;;;;;;4843875;29;20614;-60
2022/11/24 04:34:09;;;;;;;16.90;3.77;;;8.60;1.00;;;;;;4842025;29;20195;-59
2022/11/24 04:36:36;;;;;;;16.83;3.93;;;8.60;1.00;;;;;;4842959;29;20663;-60
2022/11/24 04:39:03;;;;;;;15.63;3.70;;;8.60;1.00;;;;;;4844234;29;20294;-60
2022/11/24 04:41:50;;;;;;;18.93;5.20;;;8.60;1.00;;;;;;4842762;29;20276;-59
2022/11/24 04:44:17;;;;;;;15.73;3.80;;;8.60;1.00;;;;;;4845903;29;20673;-59
2022/11/24 04:46:44;;;;;;;17.87;3.63;;;8.70;1.00;;;;;;4849439;29;20222;-60
2022/11/24 04:49:11;;;;;;;19.77;3.90;;;8.70;1.00;;;;;;4849314;29;20277;-61
2022/11/24 04:51:39;;;;;;;19.00;4.50;;;8.80;1.00;;;;;;4848831;29;20824;-62
2022/11/24 04:54:08;;;;;;;11.53;3.40;;;8.80;1.00;;;;;;4846503;29;20634;-60
2022/11/24 04:56:36;;;;;;;15.73;3.77;;;8.80;1.00;;;;;;4847622;29;20249;-61
2022/11/24 04:59:03;;;;;;;19.23;4.07;;;8.70;1.00;;;;;;4847402;29;21083;-60
2022/11/24 05:01:34;;;;;;;15.63;4.63;;;8.80;1.00;;;;;;4847987;29;20761;-62
2022/11/24 05:04:01;;;;;;;18.73;4.00;;;8.80;1.00;;;;;;4831305;29;20203;-61
2022/11/24 05:06:28;;;;;;;20.30;3.93;;;8.80;1.00;;;;;;4843909;29;20274;-62
2022/11/24 05:08:55;;;;;;;23.03;4.67;;;8.80;1.00;;;;;;4845444;29;20318;-60
2022/11/24 05:11:22;;;;;;;15.10;3.40;;;8.80;1.00;;;;;;4842688;29;20241;-59
2022/11/24 05:13:51;;;;;;;20.73;3.57;;;8.80;1.00;;;;;;4847409;29;20599;-59
2022/11/24 05:16:18;;;;;;;16.57;3.87;;;8.80;1.00;;;;;;4848174;29;20194;-60
2022/11/24 05:18:45;;;;;;;16.50;3.87;;;8.90;1.00;;;;;;4845943;29;20206;-59
2022/11/24 05:21:12;;;;;;;17.67;3.80;;;8.90;1.00;;;;;;4848174;29;20690;-60
2022/11/24 05:23:39;;;;;;;15.87;4.33;;;9.00;1.00;;;;;;4848078;29;20328;-60
2022/11/24 05:26:06;;;;;;;15.93;3.67;;;8.90;1.00;;;;;;4844352;29;20210;-61
2022/11/24 05:28:36;;;;;;;20.03;4.80;;;8.80;1.00;;;;;;4844634;29;20195;-60
2022/11/24 05:31:03;;;;;;;23.53;6.20;;;8.70;1.00;;;;;;4845382;29;20191;-59
2022/11/24 05:33:32;;;;;;;21.70;4.40;;;8.70;1.00;;;;;;4845870;29;20268;-61
2022/11/24 05:36:04;;;;;;;22.37;6.70;;;8.60;1.00;;;;;;4845923;29;20290;-61
2022/11/24 05:38:32;;;;;;;25.90;5.53;;;8.60;1.00;;;;;;4847155;29;20739;-60
2022/11/24 05:41:04;;;;;;;21.93;4.30;;;8.60;1.00;;;;;;4847169;29;20579;-59
2022/11/24 05:43:30;;;;;;;22.70;5.53;;;8.60;1.00;;;;;;4831054;29;20199;-60
2022/11/24 05:45:59;;;;;;;22.30;4.13;;;8.50;1.00;;;;;;4846490;29;20337;-61
2022/11/24 05:48:26;;;;;;;24.37;6.43;;;8.50;1.00;;;;;;4846213;29;20705;-58
2022/11/24 05:50:56;;;;;;;18.50;6.20;;;8.50;1.00;;;;;;4846658;29;20539;-58
2022/11/24 05:53:24;;;;;;;20.17;5.13;;;8.60;2.40;;;;;;4831113;29;20195;-58
2022/11/24 05:55:51;;;;;;;21.07;5.67;;;8.50;25.30;;;;;;4842874;29;20209;-61
2022/11/24 05:58:18;;;;;;;22.60;6.10;;;8.50;45.30;;;;;;4846562;29;20203;-58
2022/11/24 06:00:45;;;;;;;24.43;5.17;;;8.40;89.80;;;;;;4826200;29;20199;-59
2022/11/24 06:03:12;;;;;;;22.27;5.00;;;8.50;82.00;;;;;;4847317;29;20853;-61
2022/11/24 06:05:44;;;;;;;20.10;6.20;;;8.50;80.90;;;;;;4847327;29;20221;-59
2022/11/24 06:08:11;;;;;;;21.17;5.17;;;8.50;93.70;;;;;;4846921;29;20593;-58
2022/11/24 06:10:38;;;;;;;24.70;5.07;;;8.50;74.60;;;;;;4839001;29;20314;-59
2022/11/24 06:13:06;;;;;;;17.93;4.77;;;8.50;55.00;;;;;;4846806;29;20191;-58
2022/11/24 06:15:36;;;;;;;21.27;3.87;;;8.50;53.70;;;;;;4863134;29;20684;-57
2022/11/24 06:18:03;;;;;;;27.57;5.53;;;8.50;47.90;;;;;;4850611;29;20238;-61
2022/11/24 06:20:30;;;;;;;25.30;5.40;;;8.50;53.00;;;;;;4845025;29;20226;-61
2022/11/24 06:22:59;;;;;;;24.17;5.80;;;8.50;79.10;;;;;;4846637;29;20718;-58
2022/11/24 06:25:27;;;;;;;24.70;6.03;;;8.50;60.50;;;;;;4845685;29;20234;-59
2022/11/24 06:27:54;;;;;;;23.27;5.20;;;8.50;45.20;;;;;;4846179;29;20313;-58
2022/11/24 06:30:21;;;;;;;15.07;4.10;;;8.60;28.60;;;;;;4847225;29;20285;-60
2022/11/24 06:32:52;;;;;;;19.07;5.07;;;8.60;32.70;;;;;;4859521;29;20702;-58
2022/11/24 06:35:19;;;;;;;15.17;4.63;;;8.50;38.50;;;;;;4859227;29;20199;-61
2022/11/24 06:37:46;;;;;;;15.33;4.33;;;8.40;55.40;;;;;;4860328;29;20206;-59
2022/11/24 06:40:13;;;;;;;20.90;4.80;;;8.40;57.50;;;;;;4860912;29;20195;-58
2022/11/24 06:42:40;;;;;;;28.77;6.33;;;8.40;40.10;;;;;;4844336;29;20203;-58
2022/11/24 06:45:08;;;;;;;21.33;4.93;;;8.40;45.50;;;;;;4859495;29;20621;-59
2022/11/24 06:47:36;;;;;;;23.83;5.93;;;8.40;48.00;;;;;;4845007;29;20247;-59
2022/11/24 06:50:03;;;;;;;20.37;5.10;;;8.50;14.20;;;;;;4858038;29;20660;-59
2022/11/24 06:52:30;;;;;;;22.80;5.23;;;8.40;24.10;;;;;;4858650;29;20230;-58
2022/11/24 06:54:57;;;;;;;33.10;6.07;;;8.30;32.90;;;;;;4844741;29;20674;-59
2022/11/24 06:57:25;;;;;;;23.20;5.00;;;8.40;29.00;;;;;;4844937;29;21253;-59
2022/11/24 06:59:52;;;;;;;21.80;5.47;;;8.40;34.90;;;;;;4860974;29;20194;-58
2022/11/24 07:02:19;;;;;;;21.17;5.77;;;8.40;23.60;;;;;;4826840;29;20199;-61
2022/11/24 07:04:46;;;;;;;26.03;5.70;;;8.40;21.60;;;;;;4845324;29;20293;-60
2022/11/24 07:07:13;;;;;;;22.50;6.23;;;8.40;17.30;;;;;;4845507;29;20233;-59
2022/11/24 07:09:40;;;;;;;21.60;5.47;;;8.40;13.00;;;;;;4844280;29;20248;-60
2022/11/24 07:12:07;;;;;;;24.87;5.80;;;8.40;17.00;;;;;;4844334;29;20201;-60
2022/11/24 07:14:34;;;;;;;19.73;5.43;;;8.40;13.50;;;;;;4845300;29;20211;-60
2022/11/24 07:17:03;;;;;;;21.03;5.37;;;8.40;18.10;;;;;;4845102;29;20202;-59
2022/11/24 07:19:30;;;;;;;21.67;5.37;;;8.40;21.30;;;;;;4841351;29;20210;-60
2022/11/24 07:21:57;;;;;;;22.50;5.70;;;8.40;17.00;;;;;;4844228;29;20438;-59
2022/11/24 07:24:24;;;;;;;22.30;5.90;;;8.40;32.40;;;;;;4843574;29;20289;-61
2022/11/24 07:26:51;;;;;;;19.87;5.37;;;8.40;23.70;;;;;;4843525;29;21150;-61
2022/11/24 07:29:25;;;;;;;19.97;4.60;;;8.40;21.50;;;;;;5049721;28;20658;-61
2022/11/24 07:31:52;;;;;;;19.70;5.23;;;8.50;10.70;;;;;;5047735;28;20187;-57
2022/11/24 07:34:19;;;;;;;18.03;4.43;;;8.50;1.00;;;;;;5048944;28;20180;-59
2022/11/24 07:36:46;;;;;;;21.60;4.57;;;8.60;1.00;;;;;;5047327;28;20195;-60
2022/11/24 07:39:13;;;;;;;18.60;4.70;;;8.70;1.00;;;;;;5046811;28;20686;-59
2022/11/24 07:41:40;;;;;;;22.47;4.90;;;8.70;1.00;;;;;;5046878;28;20199;-62
2022/11/24 07:44:07;;;;;;;19.90;5.10;;;8.80;1.00;;;;;;5048706;28;20200;-58
2022/11/24 07:46:34;;;;;;;18.97;4.33;;;8.80;1.00;;;;;;5049342;28;20758;-61
2022/11/24 07:49:01;;;;;;;19.17;5.47;;;8.70;1.00;;;;;;5045584;28;20212;-64
2022/11/24 07:51:28;;;;;;;17.20;4.80;;;8.80;1.00;;;;;;5047064;28;20671;-59
2022/11/24 07:53:55;;;;;;;15.00;5.00;;;8.90;1.00;;;;;;5048217;28;20271;-58
2022/11/24 07:56:22;;;;;;;24.60;5.03;;;8.90;1.00;;;;;;5047103;28;20219;-59
2022/11/24 07:58:49;;;;;;;20.17;4.57;;;8.90;1.00;;;;;;5048460;28;20781;-57
2022/11/24 08:01:19;;;;;;;17.47;3.50;;;9.10;1.00;;;;;;5048136;28;20188;-57
2022/11/24 08:03:46;;;;;;;23.23;5.17;;;9.10;1.00;;;;;;5046899;28;20196;-61
2022/11/24 08:06:14;;;;;;;30.07;5.57;;;9.10;1.00;;;;;;5046353;28;20291;-58
2022/11/24 08:08:56;;;;;;;21.33;5.00;;;9.10;1.00;;;;;;5048193;28;20230;-59
2022/11/24 08:11:24;;;;;;;13.90;3.83;;;9.20;1.00;;;;;;5048628;28;20202;-60
2022/11/24 08:13:52;;;;;;;20.43;4.30;;;9.10;1.00;;;;;;5044367;28;20200;-61
2022/11/24 08:16:19;;;;;;;21.60;4.73;;;9.20;1.00;;;;;;5047372;28;20188;-60
2022/11/24 08:18:51;;;;;;;25.53;4.80;;;9.20;1.00;;;;;;5027569;28;20750;-60
2022/11/24 08:21:19;;;;;;;20.53;4.73;;;9.20;1.00;;;;;;5041449;28;20254;-58
2022/11/24 08:23:46;;;;;;;21.43;3.90;;;9.30;1.00;;;;;;5048354;28;20196;-57
2022/11/24 08:26:16;;;;;;;21.87;4.53;;;9.30;1.00;;;;;;5046149;28;20234;-58
2022/11/24 08:28:45;;;;;;;17.07;4.17;;;9.30;1.00;;;;;;5042054;28;20244;-58
2022/11/24 08:31:15;;;;;;;17.07;3.83;;;9.40;1.00;;;;;;5045514;28;20611;-64
2022/11/24 08:33:42;;;;;;;19.83;4.00;;;9.30;1.00;;;;;;5045453;28;20206;-59
2022/11/24 08:36:18;;;;;;;15.93;4.37;;;9.30;1.00;;;;;;5048451;28;20205;-60
2022/11/24 08:38:47;;;;;;;17.90;4.17;;;9.30;1.00;;;;;;5042582;28;20681;-60
2022/11/24 08:41:16;;;;;;;15.00;3.30;;;9.30;1.00;;;;;;5034952;28;20204;-60
2022/11/24 08:43:43;;;;;;;17.00;3.83;;;9.30;1.00;;;;;;5026567;28;20282;-61
2022/11/24 08:46:16;;;;;;;14.13;4.30;;;9.30;1.00;;;;;;5033693;28;20228;-60
2022/11/24 08:48:47;;;;;;;15.37;3.30;;;9.30;1.00;;;;;;5029042;28;20219;-59
2022/11/24 08:51:17;;;;;;;11.20;3.30;;;9.30;1.00;;;;;;5033418;28;20616;-60
2022/11/24 08:53:44;;;;;;;14.87;3.40;;;9.30;1.00;;;;;;5031215;28;20188;-57
2022/11/24 08:56:12;;;;;;;15.40;2.93;;;9.40;1.00;;;;;;5030103;28;20194;-59
2022/11/24 08:58:39;;;;;;;14.40;2.97;;;9.40;1.00;;;;;;5029268;28;20199;-58
2022/11/24 09:01:08;;;;;;;12.67;2.53;;;9.40;1.00;;;;;;5029973;28;20211;-58
2022/11/24 09:03:36;;;;;;;12.67;3.00;;;9.40;1.00;;;;;;5015291;28;20197;-57
2022/11/24 09:06:04;;;;;;;9.30;2.47;;;9.30;1.00;;;;;;5029865;28;20220;-58
2022/11/24 09:08:32;;;;;;;14.50;3.03;;;9.30;1.00;;;;;;5032965;28;20203;-60
2022/11/24 09:11:08;;;;;;;7.27;2.70;;;9.40;1.00;;;;;;5032239;28;20203;-59
2022/11/24 09:13:36;;;;;;;8.73;2.30;;;9.40;1.00;;;;;;5023277;28;20196;-59
2022/11/24 09:16:06;;;;;;;7.63;2.20;;;9.40;1.00;;;;;;5032110;28;20271;-58
2022/11/24 09:18:33;;;;;;;7.73;2.43;;;9.50;1.00;;;;;;5028642;28;20204;-57
2022/11/24 09:21:15;;;;;;;9.57;2.63;;;9.40;1.00;;;;;;5031097;28;20716;-60
2022/11/24 09:23:43;;;;;;;8.50;2.90;;;9.40;1.00;;;;;;5030406;28;20659;-63
2022/11/24 09:26:31;;;;;;;9.50;2.27;;;9.40;1.00;;;;;;5031216;28;20192;-59
2022/11/24 09:28:59;;;;;;;7.97;2.33;;;9.40;1.00;;;;;;5028170;28;20243;-67
2022/11/24 09:31:30;;;;;;;6.70;2.77;;;9.40;1.00;;;;;;5029725;28;20609;-58
2022/11/24 09:33:58;;;;;;;6.53;2.70;;;9.40;1.00;;;;;;5028483;28;20672;-62
2022/11/24 09:36:25;;;;;;;6.50;1.83;;;9.40;1.00;;;;;;5035404;28;20712;-60
2022/11/24 09:38:52;;;;;;;9.13;2.23;;;9.40;1.00;;;;;;5033283;28;20683;-59
2022/11/24 09:41:49;;;;;;;7.17;2.60;;;9.30;1.00;;;;;;5027843;28;20834;-61
2022/11/24 09:44:47;;;;;;;6.03;2.23;;;9.40;1.00;;;;;;5022229;28;20204;-61
2022/11/24 09:47:14;;;;;;;6.23;3.00;;;9.40;1.00;;;;;;5031591;28;20191;-59
2022/11/24 09:49:41;;;;;;;8.40;2.77;;;9.40;1.00;;;;;;5026134;28;20713;-61
2022/11/24 09:52:16;;;;;;;6.53;2.30;;;9.30;1.00;;;;;;5032372;28;20337;-62
2022/11/24 09:54:59;;;;;;;8.37;2.20;;;9.30;1.00;;;;;;5029637;28;20203;-58
2022/11/24 09:57:30;;;;;;;8.67;2.47;;;9.30;1.00;;;;;;5030910;28;20238;-61
2022/11/24 10:00:11;;;;;;;5.07;2.07;;;9.30;1.00;;;;;;5030756;28;20211;-57
2022/11/24 10:02:38;;;;;;;11.53;2.90;;;9.30;1.00;;;;;;5034640;28;20219;-58
2022/11/24 10:05:06;;;;;;;8.93;2.53;;;9.30;1.00;;;;;;5030435;28;20476;-58
2022/11/24 10:07:41;;;;;;;6.83;2.80;;;9.30;1.00;;;;;;5025621;28;20543;-62
2022/11/24 10:10:14;;;;;;;6.63;3.00;;;9.20;1.00;;;;;;5032681;28;20245;-61
2022/11/24 10:13:25;;;;;;;4.60;2.07;;;9.10;1.00;;;;;;5030314;28;21166;-60
2022/11/24 10:16:21;;;;;;;4.20;2.30;;;9.10;1.00;;;;;;5035035;28;20271;-59
2022/11/24 10:19:16;;;;;;;4.77;2.70;;;8.90;1.00;;;;;;5032851;28;20266;-59
2022/11/24 10:22:10;;;;;;;8.50;3.17;;;8.90;1.00;;;;;;5032699;28;20223;-60
2022/11/24 10:24:39;;;;;;;11.67;3.70;;;8.90;1.00;;;;;;5029938;28;20245;-59
2022/11/24 10:27:16;;;;;;;8.13;3.00;;;8.90;1.00;;;;;;5031549;28;20219;-57
2022/11/24 10:29:46;;;;;;;10.40;2.67;;;8.80;1.00;;;;;;5032853;28;20291;-58
2022/11/24 10:32:20;;;;;;;9.77;2.70;;;8.80;1.00;;;;;;5027036;28;20203;-60
2022/11/24 10:34:49;;;;;;;7.53;3.20;;;8.80;1.00;;;;;;5030465;28;20224;-60
2022/11/24 10:37:27;;;;;;;5.87;2.67;;;8.90;1.00;;;;;;5029568;28;20254;-60
2022/11/24 10:40:26;;;;;;;10.47;3.70;;;9.00;1.00;;;;;;5030037;28;20276;-67
2022/11/24 10:43:13;;;;;;;9.07;2.83;;;9.20;1.00;;;;;;5027202;28;20214;-60
2022/11/24 10:45:40;;;;;;;9.80;4.30;;;9.20;1.00;;;;;;5030802;28;20203;-62
2022/11/24 10:48:19;;;;;;;8.37;3.00;;;9.20;1.00;;;;;;5018102;28;20203;-62
2022/11/24 10:50:46;;;;;;;9.23;3.70;;;9.50;1.00;;;;;;5031077;28;20198;-60
2022/11/24 10:53:19;;;;;;;10.23;3.10;;;9.60;1.00;;;;;;5030159;28;20188;-62
2022/11/24 10:55:55;;;;;;;11.53;3.70;;;9.60;1.00;;;;;;5033630;28;20185;-60
2022/11/24 10:58:36;;;;;;;6.63;2.83;;;9.70;1.00;;;;;;5028343;28;20192;-60
2022/11/24 11:01:30;;;;;;;11.37;4.10;;;9.60;1.00;;;;;;5029081;28;20196;-60
2022/11/24 11:04:00;;;;;;;8.60;3.27;;;9.40;1.00;;;;;;5016327;28;20223;-60
2022/11/24 11:06:30;;;;;;;9.07;3.00;;;9.40;1.00;;;;;;5031306;28;20261;-59
2022/11/24 11:09:07;;;;;;;5.70;3.10;;;9.40;1.00;;;;;;5028242;28;20346;-60
2022/11/24 11:11:37;;;;;;;10.27;3.43;;;9.50;1.00;;;;;;5015879;28;20230;-61
2022/11/24 11:14:11;;;;;;;9.93;4.43;;;9.60;1.00;;;;;;5029443;28;20196;-64
2022/11/24 11:16:49;;;;;;;18.27;8.70;;;9.60;1.00;;;;;;5030740;28;20236;-61
2022/11/24 11:19:42;;;;;;;11.03;5.90;;;9.60;1.00;;;;;;5024928;28;20275;-60
2022/11/24 11:22:21;;;;;;;16.53;8.27;;;9.80;1.00;;;;;;5028943;28;20192;-59
2022/11/24 11:25:03;;;;;;;13.93;6.70;;;9.90;1.00;;;;;;5028938;28;20274;-61
2022/11/24 11:27:30;;;;;;;11.10;4.57;;;9.90;1.00;;;;;;5029259;28;20224;-60
2022/11/24 11:30:16;;;;;;;14.73;5.80;;;9.80;1.00;;;;;;5034069;28;20512;-60
2022/11/24 11:33:03;;;;;;;9.33;4.57;;;9.90;1.00;;;;;;5033884;28;20731;-60
2022/11/24 11:35:50;;;;;;;17.73;7.60;;;9.90;1.00;;;;;;5032450;28;20199;-60
2022/11/24 11:38:18;;;;;;;16.37;8.43;;;9.90;1.00;;;;;;5024750;28;20195;-60
2022/11/24 11:40:49;;;;;;;11.20;5.57;;;10.00;1.00;;;;;;5031140;28;20195;-59
2022/11/24 11:43:29;;;;;;;13.37;6.67;;;9.90;1.00;;;;;;5025676;28;20287;-59
2022/11/24 11:46:05;;;;;;;10.90;5.20;;;10.00;1.00;;;;;;5031077;28;20585;-61
2022/11/24 11:48:35;;;;;;;13.97;4.87;;;10.20;1.00;;;;;;5026261;28;20734;-60
2022/11/24 11:51:09;;;;;;;14.07;5.83;;;10.40;1.00;;;;;;5011902;28;20603;-59
2022/11/24 11:54:03;;;;;;;11.27;4.57;;;10.60;1.00;;;;;;5022317;28;23006;-60
2022/11/24 11:56:35;;;;;;;12.87;4.77;;;10.90;1.00;;;;;;5025894;28;20570;-60
2022/11/24 11:59:17;;;;;;;16.23;4.97;;;11.30;1.00;;;;;;5032318;28;20196;-61
2022/11/24 12:02:21;;;;;;;13.83;5.47;;;11.70;1.00;;;;;;5034734;28;20205;-61
2022/11/24 12:04:55;;;;;;;10.00;3.90;;;11.60;1.00;;;;;;5017599;28;20196;-59
2022/11/24 12:08:06;;;;;;;13.17;4.63;;;11.30;1.00;;;;;;5028664;28;20207;-60
2022/11/24 12:10:46;;;;;;;15.27;5.50;;;11.80;1.00;;;;;;5023138;28;20239;-61
2022/11/24 12:13:22;;;;;;;20.63;6.50;;;11.90;1.00;;;;;;5022607;28;20200;-62
2022/11/24 12:15:56;;;;;;;18.47;6.70;;;11.80;1.00;;;;;;5033596;28;20194;-61
2022/11/24 12:18:37;;;;;;;14.77;4.33;;;11.20;1.00;;;;;;5030996;28;20196;-62
2022/11/24 12:21:26;;;;;;;13.33;5.33;;;10.80;1.00;;;;;;5023010;28;20202;-59
2022/11/24 12:24:02;;;;;;;9.70;4.40;;;10.50;1.00;;;;;;5028460;28;20626;-60
2022/11/24 12:26:57;;;;;;;17.10;4.83;;;10.50;1.00;;;;;;5029768;28;20290;-62
2022/11/24 12:29:30;;;;;;;16.30;5.20;;;10.60;1.00;;;;;;5029894;28;20212;-60
2022/11/24 12:32:35;;;;;;;17.27;5.90;;;10.80;1.00;;;;;;5036619;28;20200;-61
2022/11/24 12:35:10;;;;;;;11.67;4.10;;;11.20;1.00;;;;;;5034005;28;20188;-60
2022/11/24 12:38:04;;;;;;;10.30;4.10;;;11.30;1.00;;;;;;5026962;28;20301;-61
2022/11/24 12:40:38;;;;;;;10.47;3.60;;;11.50;1.00;;;;;;5034059;28;20194;-60
2022/11/24 12:43:29;;;;;;;7.90;3.33;;;11.90;1.00;;;;;;5026511;28;20192;-63
2022/11/24 12:46:06;;;;;;;15.50;3.70;;;12.10;1.00;;;;;;5032827;28;20311;-61
2022/11/24 12:49:03;;;;;;;14.50;3.47;;;11.90;1.00;;;;;;5027348;28;20222;-73
2022/11/24 12:51:34;;;;;;;12.10;3.90;;;12.20;1.00;;;;;;5014418;28;20648;-61
2022/11/24 12:54:05;;;;;;;7.93;4.20;;;12.40;1.00;;;;;;5033305;28;20227;-59
2022/11/24 12:56:58;;;;;;;12.77;3.80;;;12.60;1.00;;;;;;5026168;28;20292;-82
2022/11/24 12:59:53;;;;;;;17.13;3.97;;;12.90;1.00;;;;;;5026034;28;20323;-60
2022/11/24 13:02:28;;;;;;;19.47;5.73;;;13.20;1.00;;;;;;5023652;28;20215;-63
2022/11/24 13:05:03;;;;;;;20.30;7.27;;;12.80;1.00;;;;;;5029673;28;20712;-61
2022/11/24 13:07:46;;;;;;;11.57;4.90;;;12.50;1.00;;;;;;5051004;28;20191;-61
2022/11/24 13:10:31;;;;;;;13.97;4.40;;;12.80;1.00;;;;;;5030962;28;20639;-61
2022/11/24 13:13:18;;;;;;;10.90;3.40;;;12.90;1.00;;;;;;5033791;28;20571;-62
2022/11/24 13:15:51;;;;;;;11.50;3.43;;;12.80;1.00;;;;;;5036835;28;20180;-61
2022/11/24 13:18:52;;;;;;;11.97;3.83;;;12.40;1.00;;;;;;5018740;28;20191;-62